Terminal Aerodrome Forecast
Issued by NWS Binghamton, NY

Home | Current Version | Previous Version | Text Only | Print | Product List | Glossary On
Versions: 1 2 3 4 5 6 7 8 9 10 11 12 13 14 15 16
000
FTUS41 KBGM 232322
TAFSYR
TAF
KSYR 232322Z 2400/2424 30011KT P6SM SCT050
     FM240500 VRB03KT P6SM SKC
     FM241400 34005KT P6SM SKC
     FM242000 VRB03KT P6SM BKN100=

USA.gov is the U.S. government's official web portal to all federal, state and local government web resources and services.